createdAt,value
2019-04-05T00:02:34.783Z,68.1
2019-04-05T00:07:33.713Z,67.5
2019-04-05T00:12:33.703Z,67
2019-04-05T00:17:33.649Z,67.3
2019-04-05T00:22:33.670Z,67.2
2019-04-05T00:27:33.676Z,67.9
2019-04-05T00:32:33.674Z,68.6
2019-04-05T00:37:33.669Z,68.1
2019-04-05T00:42:33.692Z,69.3
2019-04-05T00:47:33.663Z,68.1
2019-04-05T00:52:33.669Z,67.6
2019-04-05T00:57:33.688Z,67.5
2019-04-05T01:02:33.669Z,69.2
2019-04-05T01:07:33.684Z,68.7
2019-04-05T01:12:33.680Z,68.7
2019-04-05T01:17:33.710Z,67.7
2019-04-05T01:22:33.695Z,69.1
2019-04-05T01:27:33.853Z,68
2019-04-05T01:32:33.660Z,68.4
2019-04-05T01:37:33.700Z,68.5
2019-04-05T01:42:34.739Z,68
2019-04-05T01:47:33.911Z,68.4
2019-04-05T01:52:34.687Z,67.6
2019-04-05T01:57:33.744Z,68.2
2019-04-05T02:02:33.671Z,68
2019-04-05T02:07:33.920Z,67.1
2019-04-05T02:12:33.723Z,67.6
2019-04-05T02:17:36.178Z,67
2019-04-05T02:22:33.713Z,67.2
2019-04-05T02:27:33.739Z,67.4
2019-04-05T02:32:33.865Z,66.2
2019-04-05T02:37:33.715Z,66.3
2019-04-05T02:42:33.969Z,66.9
2019-04-05T02:47:33.884Z,66.5
2019-04-05T02:52:33.778Z,66.7
2019-04-05T02:57:33.780Z,66.9
2019-04-05T03:02:33.726Z,66.7
2019-04-05T03:07:33.747Z,67.6
2019-04-05T03:12:33.871Z,67
2019-04-05T03:17:33.749Z,67.1
2019-04-05T03:22:33.770Z,67
2019-04-05T03:27:33.765Z,66.9
2019-04-05T03:32:33.898Z,67.5
2019-04-05T03:37:33.757Z,67.5
2019-04-05T03:42:33.746Z,67
2019-04-05T03:47:33.995Z,66.5
2019-04-05T03:52:33.893Z,66.6
2019-04-05T03:57:33.957Z,67.6
2019-04-05T04:02:33.784Z,67
2019-04-05T04:07:33.920Z,68
2019-04-05T04:12:33.962Z,67.2
2019-04-05T04:17:33.799Z,68.4
2019-04-05T04:22:33.995Z,68.1
2019-04-05T04:27:33.836Z,68.4
2019-04-05T04:32:33.793Z,68.6
2019-04-05T04:37:33.931Z,67.6
2019-04-05T04:42:34.172Z,68
2019-04-05T04:47:34.001Z,67.6
2019-04-05T04:52:34.032Z,68.4
2019-04-05T04:57:33.814Z,67.4
2019-04-05T05:02:33.976Z,68.7
2019-04-05T05:07:34.038Z,69
2019-04-05T05:12:33.821Z,68.3
2019-04-05T05:17:39.245Z,68.7
2019-04-05T05:22:33.818Z,68.1
2019-04-05T05:27:34.073Z,69.3
2019-04-05T05:32:33.828Z,68.9
2019-04-05T05:37:33.843Z,68.6
2019-04-05T05:42:33.781Z,68.9
2019-04-05T05:47:33.841Z,69.7
2019-04-05T05:52:33.816Z,69.5
2019-04-05T05:57:33.816Z,68.7
2019-04-05T06:02:33.834Z,70
2019-04-05T06:07:34.007Z,69.9
2019-04-05T06:12:33.850Z,69.8
2019-04-05T06:17:33.837Z,69.7
2019-04-05T06:22:33.830Z,69.6
2019-04-05T06:27:35.686Z,70.4
2019-04-05T06:32:33.869Z,69.4
2019-04-05T06:37:33.849Z,69.6
2019-04-05T06:42:34.049Z,70.4
2019-04-05T06:47:33.850Z,69.5
2019-04-05T06:52:33.883Z,69.2
2019-04-05T06:57:34.040Z,68.3
2019-04-05T07:02:33.891Z,69.3
2019-04-05T07:07:34.007Z,68.8
2019-04-05T07:12:33.864Z,69.2
2019-04-05T07:17:33.978Z,68.2
2019-04-05T07:22:39.751Z,67.8
2019-04-05T07:27:33.871Z,68.1
2019-04-05T07:32:33.895Z,68.6
2019-04-05T07:37:33.887Z,68
2019-04-05T07:42:33.918Z,67.9
2019-04-05T07:47:33.894Z,67.6
2019-04-05T07:52:33.884Z,67.2
2019-04-05T07:57:33.899Z,69
2019-04-05T08:02:35.181Z,67.6
2019-04-05T08:07:33.912Z,67.9
2019-04-05T08:12:33.884Z,68.5
2019-04-05T08:17:33.909Z,67.6
2019-04-05T08:22:33.912Z,68.1
2019-04-05T08:27:33.911Z,67.6
2019-04-05T08:32:34.091Z,67.6
2019-04-05T08:37:33.879Z,67
2019-04-05T08:42:33.909Z,66.3
2019-04-05T08:47:33.925Z,66.4
2019-04-05T08:52:33.940Z,67
2019-04-05T08:57:33.937Z,66
2019-04-05T09:02:34.114Z,66.7
2019-04-05T09:07:33.927Z,65.7
2019-04-05T09:12:33.928Z,65.6
2019-04-05T09:17:33.962Z,65.8
2019-04-05T09:22:33.943Z,66.5
2019-04-05T09:27:34.146Z,66.4
2019-04-05T09:32:36.755Z,65.2
2019-04-05T09:37:33.949Z,65
2019-04-05T09:42:33.936Z,63.6
2019-04-05T09:47:33.954Z,62.4
2019-04-05T09:52:33.940Z,63.2
2019-04-05T09:57:33.937Z,61.8
2019-04-05T10:02:34.072Z,62.6
2019-04-05T10:07:33.958Z,61.6
2019-04-05T10:12:33.951Z,60.7
2019-04-05T10:17:33.959Z,59.8
2019-04-05T10:22:33.967Z,59.8
2019-04-05T10:27:33.989Z,57.6
2019-04-05T10:32:33.936Z,55.9
2019-04-05T10:37:34.088Z,55.8
2019-04-05T10:42:33.966Z,55.3
2019-04-05T10:47:34.004Z,54.9
2019-04-05T10:52:33.985Z,53.8
2019-04-05T10:57:33.969Z,55.4
2019-04-05T11:02:34.210Z,57
2019-04-05T11:07:35.427Z,56.5
2019-04-05T11:12:34.172Z,56.3
2019-04-05T11:17:34.007Z,57.2
2019-04-05T11:22:33.987Z,55.8
2019-04-05T11:27:34.014Z,55.8
2019-04-05T11:32:34.131Z,55.4
2019-04-05T11:37:34.011Z,56
2019-04-05T11:42:34.043Z,53.9
2019-04-05T11:47:34.032Z,56.5
2019-04-05T11:52:34.008Z,54.9
2019-04-05T11:57:34.016Z,54.7
2019-04-05T12:02:34.170Z,53.3
2019-04-05T12:07:34.016Z,54.7
2019-04-05T12:12:34.042Z,54.3
2019-04-05T12:17:35.855Z,53.9
2019-04-05T12:22:35.628Z,54
2019-04-05T12:27:34.043Z,53.9
2019-04-05T12:32:41.750Z,52.1
2019-04-05T12:37:34.008Z,52.9
2019-04-05T12:42:34.254Z,53.2
2019-04-05T12:47:34.478Z,52.9
2019-04-05T12:52:34.034Z,53.2
2019-04-05T12:57:34.033Z,53.5
2019-04-05T13:02:34.471Z,53.3
2019-04-05T13:07:35.488Z,53.1
2019-04-05T13:12:34.118Z,52.8
2019-04-05T13:17:34.055Z,52.6
2019-04-05T13:22:34.068Z,52.3
2019-04-05T13:27:34.070Z,53.2
2019-04-05T13:32:34.059Z,52.3
2019-04-05T13:37:34.071Z,51.9
2019-04-05T13:42:35.740Z,52.7
2019-04-05T13:47:39.109Z,53.6
2019-04-05T13:52:34.080Z,53.6
2019-04-05T13:57:34.240Z,54.4
2019-04-05T14:02:34.074Z,55.4
2019-04-05T14:07:34.497Z,55.3
2019-04-05T14:12:34.247Z,56
2019-04-05T14:17:34.065Z,55.6
2019-04-05T14:22:34.335Z,56
2019-04-05T14:27:35.723Z,56.1
2019-04-05T14:32:34.135Z,55.8
2019-04-05T14:37:34.312Z,56.6
2019-04-05T14:42:34.237Z,56.2
2019-04-05T14:47:34.268Z,56.9
2019-04-05T14:52:34.113Z,56.4
2019-04-05T14:57:36.745Z,56.2
2019-04-05T15:02:34.075Z,57.9
2019-04-05T15:07:34.110Z,57
2019-04-05T15:12:34.112Z,56.7
2019-04-05T15:17:48.551Z,56.9
2019-04-05T15:22:34.126Z,58.4
2019-04-05T15:27:34.356Z,59.8
2019-04-05T15:32:34.276Z,59.2
2019-04-05T15:37:34.118Z,60
2019-04-05T15:42:34.351Z,59.5
2019-04-05T15:47:34.144Z,59.9
2019-04-05T15:52:34.313Z,60.1
2019-04-05T15:57:34.653Z,61.1
2019-04-05T16:02:34.131Z,60.6
2019-04-05T16:07:34.136Z,61.3
2019-04-05T16:12:34.248Z,60.4
2019-04-05T16:17:34.180Z,59.7
2019-04-05T16:22:36.155Z,59.5
2019-04-05T16:27:34.399Z,60.1
2019-04-05T16:32:34.130Z,58.7
2019-04-05T16:37:34.476Z,59.1
2019-04-05T16:42:34.157Z,59.4
2019-04-05T16:47:34.482Z,60.8
2019-04-05T16:52:45.531Z,61.6
2019-04-05T16:57:34.368Z,61.9
2019-04-05T17:02:34.383Z,61.9
2019-04-05T17:07:34.303Z,62.4
2019-04-05T17:12:34.296Z,64
2019-04-05T17:17:34.382Z,63.8
2019-04-05T17:22:34.191Z,64.9
2019-04-05T17:27:34.336Z,65.5
2019-04-05T17:32:34.218Z,66.2
2019-04-05T17:37:34.179Z,67.7
2019-04-05T17:42:35.152Z,67.6
2019-04-05T17:47:34.232Z,68.8
2019-04-05T17:52:34.313Z,68.9
2019-04-05T17:57:34.189Z,69.7
2019-04-05T18:02:34.406Z,71.1
2019-04-05T18:07:34.423Z,71.6
2019-04-05T18:12:34.461Z,71.2
2019-04-05T18:17:34.393Z,72.1
2019-04-05T18:22:34.214Z,71.5
2019-04-05T18:27:34.272Z,73
2019-04-05T18:32:34.223Z,72.4
2019-04-05T18:37:35.643Z,72.5
2019-04-05T18:42:34.196Z,72.9
2019-04-05T18:47:34.376Z,73.3
2019-04-05T18:52:34.275Z,74.2
2019-04-05T18:57:34.474Z,73.9
2019-04-05T19:02:34.272Z,74.8
2019-04-05T19:07:34.225Z,75.2
2019-04-05T19:12:34.322Z,76.1
2019-04-05T19:17:36.055Z,76
2019-04-05T19:22:34.265Z,76.2
2019-04-05T19:27:34.776Z,76.2
2019-04-05T19:52:34.238Z,77.7
2019-04-05T19:57:35.131Z,78.3
2019-04-05T20:02:35.306Z,78.1
2019-04-05T20:07:34.642Z,79.3
2019-04-05T20:12:34.269Z,79.2
2019-04-05T20:17:34.297Z,79.6
2019-04-05T20:22:35.658Z,79.2
2019-04-05T20:27:34.257Z,80.2
2019-04-05T20:32:34.552Z,80.9
2019-04-05T20:37:35.039Z,79.5
2019-04-05T20:42:35.276Z,81.1
2019-04-05T20:47:34.285Z,81
2019-04-05T20:52:34.796Z,81
2019-04-05T20:57:34.475Z,80.4
2019-04-05T21:02:34.435Z,80.8
2019-04-05T21:07:34.313Z,82.4
2019-04-05T21:12:34.285Z,81.7
2019-04-05T21:17:34.319Z,81.4
2019-04-05T21:22:34.289Z,81.9
2019-04-05T21:27:34.419Z,82.1
2019-04-05T21:32:34.326Z,82.1
2019-04-05T21:37:34.526Z,83
2019-04-05T21:42:34.566Z,83.3
2019-04-05T21:47:34.456Z,82.6
2019-04-05T21:52:34.322Z,82.4
2019-04-05T21:57:34.323Z,84
2019-04-05T22:02:34.506Z,83.5
2019-04-05T22:07:34.321Z,82.6
2019-04-05T22:12:34.444Z,83.8
2019-04-05T22:17:34.480Z,83.1
2019-04-05T22:22:34.507Z,83.3
2019-04-05T22:27:34.314Z,83.9
2019-04-05T22:32:35.470Z,83.7
2019-04-05T22:37:34.369Z,85
2019-04-05T22:42:34.341Z,84.6
2019-04-05T22:47:34.350Z,85.5
2019-04-05T22:52:34.403Z,84.6
2019-04-05T22:57:34.538Z,85.8
2019-04-05T23:02:34.332Z,85.5
2019-04-05T23:07:34.335Z,85.1
2019-04-05T23:12:34.349Z,85.8
2019-04-05T23:17:34.571Z,85.5
2019-04-05T23:22:34.497Z,85.5
2019-04-05T23:27:34.653Z,85.9
2019-04-05T23:32:34.574Z,85.2
2019-04-05T23:37:34.380Z,86
2019-04-05T23:42:34.398Z,86.4
2019-04-05T23:47:34.572Z,85.1
2019-04-05T23:52:34.624Z,85.4
2019-04-05T23:57:34.579Z,85.9
